Time;durP1;ratioP1;P1;durP2;ratioP2;P2;SDS_P1;SDS_P2;PMS_P1;PMS_P2;Temp;Humidity;BMP_temperature;BMP_pressure;BME280_temperature;BME280_humidity;BME280_pressure;Samples;Min_cycle;Max_cycle;Signal;HPM_P1;HPM_P2
2022/08/30 00:01:23;;;;;;;5.70;4.07;;;23.40;73.40;;;;;;5032861;28;20187;-70
2022/08/30 00:03:50;;;;;;;4.75;4.35;;;23.40;73.40;;;;;;5031840;28;20175;-70
2022/08/30 00:06:18;;;;;;;4.88;4.47;;;23.40;73.40;;;;;;5031406;28;20208;-69
2022/08/30 00:08:47;;;;;;;4.60;4.20;;;23.40;73.40;;;;;;5048324;28;20579;-70
2022/08/30 00:11:25;;;;;;;4.30;4.00;;;23.40;73.40;;;;;;5032862;28;20183;-70
2022/08/30 00:13:53;;;;;;;4.32;3.80;;;23.40;73.30;;;;;;5032888;28;20229;-70
2022/08/30 00:16:21;;;;;;;4.57;4.18;;;23.40;73.40;;;;;;5014320;28;20244;-70
2022/08/30 00:18:48;;;;;;;4.03;3.72;;;23.40;73.30;;;;;;5031638;28;20222;-70
2022/08/30 00:21:13;;;;;;;4.07;3.70;;;23.40;73.40;;;;;;5032744;28;20172;-70
2022/08/30 00:23:40;;;;;;;4.38;4.03;;;23.40;73.40;;;;;;5031518;28;20266;-70
2022/08/30 00:26:07;;;;;;;4.88;4.47;;;23.40;73.40;;;;;;5030894;28;20208;-69
2022/08/30 00:28:34;;;;;;;4.38;3.97;;;23.40;73.40;;;;;;5032542;28;20187;-70
2022/08/30 00:31:01;;;;;;;4.82;3.90;;;23.40;73.40;;;;;;5031708;28;20190;-69
2022/08/30 00:33:28;;;;;;;4.00;3.70;;;23.40;73.40;;;;;;5031895;28;20268;-70
2022/08/30 00:35:54;;;;;;;4.38;3.97;;;23.40;73.40;;;;;;5031836;28;20270;-69
2022/08/30 00:38:23;;;;;;;4.22;3.90;;;23.40;73.40;;;;;;5031304;28;20262;-70
2022/08/30 00:40:50;;;;;;;4.43;4.10;;;23.40;73.30;;;;;;5032385;28;20172;-70
2022/08/30 00:43:23;;;;;;;4.00;3.70;;;23.40;73.30;;;;;;5022041;28;20314;-69
2022/08/30 00:45:50;;;;;;;4.50;4.10;;;23.40;73.30;;;;;;5027205;28;20290;-69
2022/08/30 00:48:16;;;;;;;4.00;3.70;;;23.40;73.30;;;;;;5012676;28;20182;-70
2022/08/30 00:50:52;;;;;;;4.60;4.20;;;23.40;73.30;;;;;;5012645;28;20200;-70
2022/08/30 00:53:27;;;;;;;4.10;3.80;;;23.40;73.30;;;;;;5027918;28;20176;-70
2022/08/30 00:55:56;;;;;;;4.72;4.32;;;23.40;73.30;;;;;;5027259;28;20190;-70
2022/08/30 00:58:29;;;;;;;4.65;4.25;;;23.40;73.30;;;;;;5012734;28;20260;-70
2022/08/30 01:00:59;;;;;;;4.35;3.95;;;23.30;73.20;;;;;;5011512;28;20648;-69
2022/08/30 01:03:26;;;;;;;4.50;4.10;;;23.40;73.40;;;;;;5012555;28;20174;-70
2022/08/30 01:05:52;;;;;;;4.30;4.00;;;23.30;73.20;;;;;;5010632;28;20215;-70
2022/08/30 01:08:22;;;;;;;4.10;3.80;;;23.30;73.30;;;;;;5021392;28;20271;-70
2022/08/30 01:10:51;;;;;;;4.82;4.43;;;23.30;73.20;;;;;;5047790;28;20171;-70
2022/08/30 01:13:20;;;;;;;4.03;3.72;;;23.40;74.20;;;;;;5034400;28;20223;-70
2022/08/30 01:15:49;;;;;;;4.82;4.43;;;23.30;73.20;;;;;;5018154;28;20187;-70
2022/08/30 01:18:17;;;;;;;5.03;4.47;;;23.30;73.20;;;;;;5034920;28;20282;-70
2022/08/30 01:21:23;;;;;;;4.35;4.05;;;23.30;73.20;;;;;;5035987;28;20211;-70
2022/08/30 01:23:54;;;;;;;4.78;4.47;;;23.30;73.20;;;;;;5051459;28;20716;-70
2022/08/30 01:26:21;;;;;;;4.63;4.22;;;23.30;73.20;;;;;;5050851;28;20199;-70
2022/08/30 01:28:51;;;;;;;4.20;3.90;;;23.30;73.30;;;;;;5034621;28;20203;-70
2022/08/30 01:31:18;;;;;;;4.72;4.32;;;23.30;74.00;;;;;;5035952;28;20172;-70
2022/08/30 01:33:44;;;;;;;4.57;4.03;;;23.30;73.30;;;;;;5018100;28;20183;-70
2022/08/30 01:36:13;;;;;;;4.53;4.13;;;23.30;73.30;;;;;;5034040;28;20180;-69
2022/08/30 01:38:54;;;;;;;4.30;4.00;;;23.30;73.30;;;;;;5017934;28;20210;-70
2022/08/30 01:41:34;;;;;;;4.15;3.85;;;23.30;73.20;;;;;;5035988;28;20237;-70
2022/08/30 01:44:07;;;;;;;4.60;4.20;;;23.30;73.20;;;;;;5034174;28;20191;-70
2022/08/30 01:46:44;;;;;;;4.57;4.13;;;23.40;73.20;;;;;;5033663;28;20238;-69
2022/08/30 01:49:14;;;;;;;4.10;3.80;;;23.30;73.10;;;;;;5050883;28;20615;-70
2022/08/30 01:51:41;;;;;;;4.30;3.97;;;23.30;73.20;;;;;;5034259;28;20215;-70
2022/08/30 01:54:07;;;;;;;4.85;4.45;;;23.30;73.10;;;;;;5050842;28;20183;-70
2022/08/30 01:56:33;;;;;;;4.80;4.28;;;23.30;73.20;;;;;;5034854;28;20183;-70
2022/08/30 01:58:59;;;;;;;4.85;4.47;;;23.30;73.20;;;;;;5050937;28;20203;-70
2022/08/30 02:01:28;;;;;;;4.63;4.22;;;23.30;73.20;;;;;;5050986;28;20214;-70
2022/08/30 02:03:56;;;;;;;4.63;4.22;;;23.30;73.20;;;;;;5050559;28;20270;-70
2022/08/30 02:06:22;;;;;;;3.95;3.65;;;23.30;73.20;;;;;;5049941;28;20686;-70
2022/08/30 02:08:48;;;;;;;4.80;4.40;;;23.30;73.20;;;;;;5035177;28;20228;-70
2022/08/30 02:11:15;;;;;;;4.43;4.07;;;23.30;73.20;;;;;;5031869;28;20274;-70
2022/08/30 02:13:44;;;;;;;4.05;3.63;;;23.30;73.20;;;;;;5033840;28;20705;-69
2022/08/30 02:16:15;;;;;;;4.50;4.20;;;23.30;73.10;;;;;;5033127;28;20270;-69
2022/08/30 02:18:41;;;;;;;4.45;4.10;;;23.30;73.10;;;;;;5035007;28;20199;-70
2022/08/30 02:21:08;;;;;;;4.45;4.15;;;23.30;73.10;;;;;;5033949;28;20179;-70
2022/08/30 02:23:35;;;;;;;4.57;4.18;;;23.30;73.10;;;;;;5034017;28;20222;-70
2022/08/30 02:26:02;;;;;;;4.40;4.10;;;23.30;73.10;;;;;;5034193;28;20238;-70
2022/08/30 02:28:28;;;;;;;4.22;3.83;;;23.30;73.00;;;;;;5016999;28;20226;-70
2022/08/30 02:30:54;;;;;;;4.55;4.25;;;23.30;73.00;;;;;;5034866;28;20214;-70
2022/08/30 02:33:20;;;;;;;4.35;3.95;;;23.30;73.00;;;;;;5033611;28;20178;-70
2022/08/30 02:35:45;;;;;;;4.03;3.72;;;23.30;73.00;;;;;;5032879;28;20195;-70
2022/08/30 02:38:12;;;;;;;4.13;3.83;;;23.30;73.00;;;;;;5034736;28;20186;-70
2022/08/30 02:40:38;;;;;;;3.97;3.67;;;23.20;72.90;;;;;;5033399;28;20257;-70
2022/08/30 02:43:04;;;;;;;4.78;4.38;;;23.30;73.00;;;;;;5034343;28;20180;-70
2022/08/30 02:45:30;;;;;;;4.10;3.80;;;23.20;72.90;;;;;;5032912;28;20191;-69
2022/08/30 02:47:56;;;;;;;4.38;4.05;;;23.20;73.00;;;;;;5033366;28;20190;-70
2022/08/30 02:50:23;;;;;;;4.25;3.88;;;23.20;72.90;;;;;;5016586;28;20588;-70
2022/08/30 02:52:49;;;;;;;4.35;4.05;;;23.20;73.00;;;;;;5033296;28;20188;-70
2022/08/30 02:55:16;;;;;;;4.20;3.90;;;23.20;73.00;;;;;;5033531;28;20178;-69
2022/08/30 02:57:43;;;;;;;4.07;3.70;;;23.20;73.00;;;;;;5016946;28;20171;-69
2022/08/30 03:00:14;;;;;;;4.22;3.92;;;23.20;73.00;;;;;;5034139;28;20617;-69
2022/08/30 03:02:40;;;;;;;4.05;3.75;;;23.20;73.00;;;;;;5033258;28;20184;-70
2022/08/30 03:05:11;;;;;;;4.38;4.07;;;23.20;72.90;;;;;;5033660;28;20183;-70
2022/08/30 03:07:38;;;;;;;4.28;3.97;;;23.20;72.90;;;;;;5032740;28;20243;-70
2022/08/30 03:10:05;;;;;;;4.28;3.97;;;23.20;73.60;;;;;;5033086;28;20615;-70
2022/08/30 03:12:32;;;;;;;4.07;3.60;;;23.20;72.90;;;;;;5034043;28;20201;-70
2022/08/30 03:14:58;;;;;;;4.35;3.95;;;23.20;72.90;;;;;;5032211;28;20233;-69
2022/08/30 03:17:24;;;;;;;4.28;3.97;;;23.20;72.80;;;;;;5032403;28;20199;-70
2022/08/30 03:19:50;;;;;;;4.05;3.75;;;23.20;72.80;;;;;;5033834;28;20277;-70
2022/08/30 03:22:16;;;;;;;4.22;3.92;;;23.30;73.00;;;;;;5032638;28;20271;-70
2022/08/30 03:24:44;;;;;;;4.05;3.75;;;23.20;72.80;;;;;;5033267;28;20206;-69
2022/08/30 03:27:11;;;;;;;4.47;4.13;;;23.20;72.80;;;;;;5032376;28;20211;-70
2022/08/30 03:29:38;;;;;;;4.63;4.22;;;23.20;72.90;;;;;;5032522;28;20256;-70
2022/08/30 03:32:04;;;;;;;3.90;3.60;;;23.20;72.80;;;;;;5016121;28;20183;-70
2022/08/30 03:34:31;;;;;;;4.20;3.90;;;23.20;72.80;;;;;;5031897;28;20179;-70
2022/08/30 03:36:57;;;;;;;3.90;3.60;;;23.20;72.80;;;;;;5031825;28;20183;-70
2022/08/30 03:39:24;;;;;;;4.18;3.88;;;23.20;72.80;;;;;;5033434;28;20210;-70
2022/08/30 03:41:50;;;;;;;4.10;3.80;;;23.20;72.80;;;;;;5033481;28;20199;-70
2022/08/30 03:44:16;;;;;;;4.53;4.22;;;23.20;72.80;;;;;;5032074;28;20182;-70
2022/08/30 03:46:42;;;;;;;4.40;4.10;;;23.20;72.70;;;;;;5031771;28;20215;-70
2022/08/30 03:49:08;;;;;;;4.07;3.78;;;23.20;72.80;;;;;;5032116;28;20225;-70
2022/08/30 03:51:33;;;;;;;4.03;3.72;;;23.20;72.80;;;;;;5015573;28;20278;-70
2022/08/30 03:54:00;;;;;;;4.15;3.85;;;23.20;72.80;;;;;;5048756;28;20180;-70
2022/08/30 03:56:26;;;;;;;4.22;3.92;;;23.20;72.80;;;;;;5031567;28;20207;-70
2022/08/30 03:58:52;;;;;;;5.05;4.55;;;23.20;72.70;;;;;;5031798;28;20661;-70
2022/08/30 04:01:18;;;;;;;4.57;4.22;;;23.10;72.60;;;;;;5031896;28;20236;-70
2022/08/30 04:03:44;;;;;;;4.07;3.78;;;23.20;72.80;;;;;;5033097;28;20202;-70
2022/08/30 04:06:10;;;;;;;4.53;4.20;;;23.20;72.70;;;;;;5032497;28;20207;-70
2022/08/30 04:08:37;;;;;;;4.07;3.78;;;23.20;72.70;;;;;;5031659;28;20175;-70
2022/08/30 04:11:04;;;;;;;4.43;4.05;;;23.10;72.50;;;;;;5032893;28;20570;-70
2022/08/30 04:13:30;;;;;;;4.60;4.15;;;23.20;72.60;;;;;;5031656;28;20275;-70
2022/08/30 04:15:56;;;;;;;4.10;3.80;;;23.10;72.50;;;;;;5031236;28;20338;-70
2022/08/30 04:18:22;;;;;;;4.03;3.72;;;23.10;72.40;;;;;;5031779;28;20198;-70
2022/08/30 04:20:47;;;;;;;4.00;3.70;;;23.10;72.40;;;;;;5031497;28;20215;-70
2022/08/30 04:23:14;;;;;;;4.40;4.05;;;23.10;72.50;;;;;;5015117;28;20191;-70
2022/08/30 04:25:41;;;;;;;4.85;4.45;;;23.10;72.50;;;;;;5030161;28;20218;-69
2022/08/30 04:28:07;;;;;;;4.65;4.25;;;23.10;72.50;;;;;;5031679;28;20183;-69
2022/08/30 04:30:37;;;;;;;4.72;4.32;;;23.10;72.50;;;;;;5032546;28;20203;-69
2022/08/30 04:33:03;;;;;;;4.47;4.18;;;23.10;72.40;;;;;;5031338;28;20191;-71
2022/08/30 04:35:29;;;;;;;4.85;4.38;;;23.10;72.50;;;;;;5031946;28;20179;-69
2022/08/30 04:37:55;;;;;;;4.38;4.07;;;23.20;72.50;;;;;;5015186;28;20183;-70
2022/08/30 04:40:21;;;;;;;4.63;4.32;;;23.10;72.50;;;;;;5032451;28;20200;-70
2022/08/30 04:42:52;;;;;;;4.68;4.28;;;23.10;72.40;;;;;;5032207;28;20195;-70
2022/08/30 04:45:20;;;;;;;4.40;4.10;;;23.20;72.60;;;;;;5030715;28;20561;-69
2022/08/30 04:47:46;;;;;;;4.78;4.38;;;23.10;72.40;;;;;;5030368;28;20214;-70
2022/08/30 04:50:17;;;;;;;4.50;4.20;;;23.10;72.40;;;;;;5031143;28;20199;-70
2022/08/30 04:52:43;;;;;;;4.75;4.35;;;23.10;72.40;;;;;;5031156;28;20187;-70
2022/08/30 04:55:10;;;;;;;4.40;4.00;;;23.10;72.40;;;;;;5032022;28;20183;-70
2022/08/30 04:57:37;;;;;;;4.07;3.67;;;23.10;72.40;;;;;;5032179;28;20190;-70
2022/08/30 05:00:08;;;;;;;4.40;4.10;;;23.10;72.30;;;;;;5032516;28;20206;-70
2022/08/30 05:02:33;;;;;;;4.78;4.38;;;23.10;72.30;;;;;;5031106;28;20558;-70
2022/08/30 05:07:45;;;;;;;4.78;4.38;;;23.10;72.30;;;;;;5030882;28;20626;-69
2022/08/30 05:10:11;;;;;;;4.65;4.25;;;23.10;72.30;;;;;;5030995;28;20234;-70
2022/08/30 05:12:39;;;;;;;5.07;4.68;;;23.10;72.30;;;;;;5014780;28;20197;-70
2022/08/30 05:15:05;;;;;;;4.80;4.28;;;23.10;72.30;;;;;;5031597;28;20282;-70
2022/08/30 05:17:31;;;;;;;4.55;4.18;;;23.10;72.30;;;;;;5032051;28;20269;-70
2022/08/30 05:20:00;;;;;;;4.80;4.40;;;23.10;72.40;;;;;;5030822;28;20203;-70
2022/08/30 05:22:25;;;;;;;4.35;4.05;;;23.10;72.30;;;;;;5030991;28;20180;-70
2022/08/30 05:24:51;;;;;;;4.45;4.15;;;23.10;72.40;;;;;;5031309;28;20188;-70
2022/08/30 05:27:17;;;;;;;4.72;4.35;;;23.10;72.30;;;;;;5031605;28;20203;-70
2022/08/30 05:29:43;;;;;;;4.80;4.40;;;23.10;72.40;;;;;;5047391;28;20207;-70
2022/08/30 05:32:08;;;;;;;4.88;4.47;;;23.10;72.30;;;;;;5032384;28;20218;-70
2022/08/30 05:34:34;;;;;;;4.72;4.32;;;23.10;72.30;;;;;;5031000;28;20183;-70
2022/08/30 05:37:01;;;;;;;4.22;3.83;;;23.10;72.30;;;;;;5046868;28;20183;-70
2022/08/30 05:39:28;;;;;;;4.55;4.15;;;23.10;72.30;;;;;;5031807;28;20211;-70
2022/08/30 05:41:58;;;;;;;4.43;4.13;;;23.10;72.30;;;;;;5029947;28;20258;-70
2022/08/30 05:44:25;;;;;;;4.53;4.22;;;23.10;72.30;;;;;;5030517;28;20184;-70
2022/08/30 05:46:51;;;;;;;4.63;4.32;;;23.00;72.20;;;;;;5029931;28;20281;-70
2022/08/30 05:49:17;;;;;;;4.53;4.22;;;23.10;72.30;;;;;;5030534;28;20207;-71
2022/08/30 05:51:43;;;;;;;4.65;4.25;;;23.10;72.30;;;;;;5030687;28;20645;-70
2022/08/30 05:54:11;;;;;;;4.20;3.90;;;23.10;72.30;;;;;;5047114;28;20180;-70
2022/08/30 05:56:40;;;;;;;4.72;4.32;;;23.00;72.30;;;;;;5031095;28;20250;-69
2022/08/30 05:59:07;;;;;;;4.22;3.92;;;23.00;72.30;;;;;;5049698;28;20586;-69
2022/08/30 06:01:40;;;;;;;4.47;4.18;;;23.10;72.50;;;;;;5033990;28;20742;-70
2022/08/30 06:04:10;;;;;;;4.57;4.18;;;23.10;72.50;;;;;;5014070;28;20188;-70
2022/08/30 06:06:39;;;;;;;4.47;4.18;;;23.00;72.40;;;;;;5013667;28;20266;-70
2022/08/30 06:09:10;;;;;;;4.30;4.00;;;23.00;72.40;;;;;;5014212;28;20204;-70
2022/08/30 06:11:37;;;;;;;4.22;3.92;;;23.10;72.50;;;;;;5013993;28;20295;-70
2022/08/30 06:14:03;;;;;;;4.30;4.00;;;23.10;72.40;;;;;;5014100;28;20267;-70
2022/08/30 06:16:30;;;;;;;4.10;3.80;;;23.10;73.20;;;;;;5013780;28;20196;-70
2022/08/30 06:18:58;;;;;;;4.40;4.10;;;23.00;72.30;;;;;;5015060;28;20219;-70
2022/08/30 06:21:29;;;;;;;4.28;3.97;;;23.10;72.30;;;;;;5015123;28;20199;-70
2022/08/30 06:23:56;;;;;;;4.60;4.20;;;23.10;72.40;;;;;;5030566;28;20177;-69
2022/08/30 06:26:23;;;;;;;4.95;4.55;;;23.00;72.40;;;;;;5014738;28;20233;-70
2022/08/30 06:28:49;;;;;;;4.70;4.30;;;23.10;72.50;;;;;;5033964;28;20207;-70
2022/08/30 06:31:18;;;;;;;4.40;4.10;;;23.00;72.50;;;;;;5033914;28;20183;-70
2022/08/30 06:33:44;;;;;;;4.93;4.53;;;23.00;72.50;;;;;;5034691;28;20185;-70
2022/08/30 06:36:15;;;;;;;4.68;4.35;;;23.10;73.50;;;;;;5034180;28;20194;-69
2022/08/30 06:38:41;;;;;;;4.97;4.57;;;23.00;72.70;;;;;;5034594;28;20183;-70
2022/08/30 06:41:11;;;;;;;4.35;4.05;;;23.00;72.80;;;;;;5033618;28;20195;-70
2022/08/30 06:43:37;;;;;;;5.68;4.13;;;23.00;72.90;;;;;;5033156;28;20189;-70
2022/08/30 06:46:06;;;;;;;4.93;4.53;;;23.00;72.80;;;;;;5032785;28;20215;-69
2022/08/30 06:48:32;;;;;;;4.95;4.55;;;23.00;72.90;;;;;;5033104;28;20230;-70
2022/08/30 06:50:58;;;;;;;4.60;4.13;;;23.00;73.00;;;;;;5032162;28;20215;-70
2022/08/30 06:53:25;;;;;;;4.75;4.35;;;23.00;73.00;;;;;;5034371;28;20184;-70
2022/08/30 06:55:59;;;;;;;5.20;4.78;;;23.10;73.30;;;;;;5032603;28;20191;-69
2022/08/30 06:58:28;;;;;;;5.15;4.75;;;23.00;73.10;;;;;;5033069;28;20228;-69
2022/08/30 07:00:54;;;;;;;4.90;4.50;;;23.10;73.30;;;;;;5032028;28;20179;-69
2022/08/30 07:03:21;;;;;;;4.25;3.95;;;23.10;73.40;;;;;;5030121;28;20250;-69
2022/08/30 07:05:47;;;;;;;5.00;4.60;;;23.10;73.50;;;;;;5029078;28;20299;-69
2022/08/30 07:08:14;;;;;;;4.45;4.15;;;23.00;73.40;;;;;;5029692;28;20215;-69
2022/08/30 07:10:41;;;;;;;4.18;3.88;;;23.10;73.50;;;;;;5012268;28;20203;-70
2022/08/30 07:13:08;;;;;;;4.22;3.92;;;23.00;73.60;;;;;;5014318;28;20215;-70
2022/08/30 07:15:34;;;;;;;4.35;4.05;;;23.00;73.70;;;;;;5013673;28;20559;-69
2022/08/30 07:20:45;;;;;;;4.47;4.18;;;23.10;73.80;;;;;;5013160;28;20204;-70
2022/08/30 07:23:11;;;;;;;4.30;4.00;;;23.00;73.70;;;;;;5014055;28;20173;-69
2022/08/30 07:25:40;;;;;;;4.47;4.07;;;23.00;73.70;;;;;;5028555;28;20180;-69
2022/08/30 07:28:08;;;;;;;4.97;4.57;;;23.10;73.80;;;;;;5030729;28;20191;-69
2022/08/30 07:30:35;;;;;;;4.97;4.57;;;23.10;73.90;;;;;;5028833;28;20219;-70
2022/08/30 07:33:02;;;;;;;5.10;4.70;;;23.10;73.60;;;;;;5029038;28;20168;-69
2022/08/30 07:35:28;;;;;;;5.97;5.38;;;23.10;73.50;;;;;;5013153;28;20263;-70
2022/08/30 07:37:54;;;;;;;5.43;4.90;;;23.20;73.60;;;;;;5013725;28;20192;-70
2022/08/30 07:40:20;;;;;;;5.45;4.95;;;23.20;73.80;;;;;;5012499;28;20235;-70
2022/08/30 07:42:46;;;;;;;5.30;4.90;;;23.20;73.70;;;;;;5044189;28;20717;-69
2022/08/30 07:45:12;;;;;;;5.05;4.65;;;23.20;73.70;;;;;;5011893;28;20184;-69
2022/08/30 07:47:38;;;;;;;5.20;4.80;;;23.20;73.50;;;;;;5029003;28;20222;-70
2022/08/30 07:50:06;;;;;;;5.63;5.13;;;23.20;73.60;;;;;;5028652;28;20696;-70
2022/08/30 07:52:33;;;;;;;5.20;4.80;;;23.30;73.70;;;;;;5013576;28;20187;-70
2022/08/30 07:55:00;;;;;;;5.45;4.95;;;23.30;73.50;;;;;;5028286;28;20184;-70
2022/08/30 07:57:26;;;;;;;5.10;4.70;;;23.30;73.70;;;;;;5028050;28;20184;-70
2022/08/30 07:59:52;;;;;;;4.70;4.38;;;23.30;73.70;;;;;;4995831;28;20312;-70
2022/08/30 08:02:19;;;;;;;4.93;4.35;;;23.40;73.80;;;;;;5028718;28;20188;-70
2022/08/30 08:04:46;;;;;;;5.30;4.57;;;23.40;73.80;;;;;;5028774;28;20265;-70
2022/08/30 08:07:12;;;;;;;5.00;4.60;;;23.40;73.60;;;;;;5011365;28;20222;-71
2022/08/30 08:09:38;;;;;;;5.13;4.72;;;23.40;73.70;;;;;;5028612;28;20192;-70
2022/08/30 08:12:07;;;;;;;4.50;4.20;;;23.40;73.40;;;;;;5011982;28;20184;-70
2022/08/30 08:14:34;;;;;;;4.63;4.32;;;23.40;73.40;;;;;;5028277;28;20180;-70
2022/08/30 08:17:00;;;;;;;4.90;4.50;;;23.40;73.60;;;;;;5011332;28;20199;-71
2022/08/30 08:19:26;;;;;;;4.97;4.57;;;23.40;73.40;;;;;;5045089;28;20204;-70
2022/08/30 08:21:58;;;;;;;4.97;4.57;;;23.40;73.40;;;;;;5013127;28;20346;-69
2022/08/30 08:24:26;;;;;;;4.75;4.43;;;23.40;73.40;;;;;;5027696;28;20801;-69
2022/08/30 08:26:52;;;;;;;4.85;4.47;;;23.40;74.10;;;;;;5011015;28;20703;-70
2022/08/30 08:29:18;;;;;;;5.20;4.80;;;23.40;73.40;;;;;;5011915;28;20208;-69
2022/08/30 08:31:45;;;;;;;4.43;4.13;;;23.40;73.40;;;;;;5028243;28;20190;-70
2022/08/30 08:34:12;;;;;;;5.55;5.15;;;23.40;73.30;;;;;;5013319;28;20343;-70
2022/08/30 08:36:39;;;;;;;4.93;4.53;;;23.40;73.30;;;;;;5027552;28;20192;-70
2022/08/30 08:39:08;;;;;;;4.90;4.50;;;23.50;73.60;;;;;;5011961;28;20274;-70
2022/08/30 08:41:57;;;;;;;5.03;4.53;;;23.40;73.40;;;;;;5019714;28;20183;-71
2022/08/30 08:44:58;;;;;;;5.10;4.70;;;23.50;73.30;;;;;;5014814;28;20222;-70
2022/08/30 08:47:45;;;;;;;4.80;4.40;;;23.50;73.40;;;;;;5032042;28;20245;-69
2022/08/30 08:50:17;;;;;;;5.18;4.78;;;23.50;73.40;;;;;;5032461;28;20198;-69
2022/08/30 08:55:55;;;;;;;5.35;4.85;;;23.50;73.30;;;;;;5031736;28;20225;-69
2022/08/30 08:58:42;;;;;;;5.47;5.07;;;23.50;73.30;;;;;;5032324;28;20172;-69
2022/08/30 09:01:11;;;;;;;5.35;4.95;;;23.50;73.20;;;;;;5032171;28;20178;-70
2022/08/30 09:03:38;;;;;;;5.22;4.82;;;23.60;73.40;;;;;;5031884;28;20206;-70
2022/08/30 09:06:21;;;;;;;5.63;5.13;;;23.50;73.40;;;;;;5047346;28;20281;-70
2022/08/30 09:08:47;;;;;;;5.38;4.97;;;23.50;73.30;;;;;;5014535;28;20683;-69
2022/08/30 09:11:23;;;;;;;5.53;5.13;;;23.50;73.40;;;;;;5031365;28;20236;-69
2022/08/30 09:13:49;;;;;;;5.82;5.43;;;23.50;73.30;;;;;;5031324;28;20182;-69
2022/08/30 09:16:59;;;;;;;5.97;5.47;;;23.50;73.30;;;;;;5030749;28;20191;-70
2022/08/30 09:19:36;;;;;;;5.20;4.80;;;23.50;73.40;;;;;;5047628;28;20686;-70
2022/08/30 09:22:37;;;;;;;5.25;4.85;;;23.60;73.40;;;;;;5031033;28;20191;-70
2022/08/30 09:25:11;;;;;;;5.57;5.15;;;23.60;73.70;;;;;;5031226;28;20179;-70
2022/08/30 09:27:47;;;;;;;5.10;4.70;;;23.50;73.30;;;;;;5031510;28;20207;-70
2022/08/30 09:30:25;;;;;;;5.55;4.82;;;23.50;73.30;;;;;;5032007;28;20556;-70
2022/08/30 09:33:00;;;;;;;4.90;4.50;;;23.60;73.50;;;;;;5032969;28;20183;-70
2022/08/30 09:35:37;;;;;;;5.63;5.13;;;23.50;73.40;;;;;;5034147;28;20217;-70
2022/08/30 09:38:10;;;;;;;5.03;4.57;;;23.60;73.40;;;;;;5034854;28;20176;-69
2022/08/30 09:40:41;;;;;;;5.28;4.88;;;23.60;73.50;;;;;;5051074;28;20217;-70
2022/08/30 09:43:20;;;;;;;5.32;4.93;;;23.60;74.20;;;;;;5034159;28;20187;-70
2022/08/30 09:46:08;;;;;;;5.63;5.15;;;23.60;73.40;;;;;;5034128;28;20187;-69
2022/08/30 09:48:39;;;;;;;5.20;4.80;;;23.60;73.50;;;;;;5017980;28;20184;-70
2022/08/30 09:51:13;;;;;;;5.60;5.10;;;23.60;73.50;;;;;;5034417;28;20187;-70
2022/08/30 09:54:09;;;;;;;5.68;5.10;;;23.60;73.40;;;;;;5034502;28;20197;-70
2022/08/30 09:57:18;;;;;;;5.55;5.05;;;23.60;73.50;;;;;;5033832;28;20175;-69
2022/08/30 10:00:07;;;;;;;5.68;5.18;;;23.60;73.50;;;;;;5034388;28;20211;-69
2022/08/30 10:02:50;;;;;;;5.05;4.65;;;23.60;73.60;;;;;;5050937;28;20172;-69
2022/08/30 10:05:37;;;;;;;5.10;4.70;;;23.60;73.40;;;;;;5038106;28;20186;-70
2022/08/30 10:08:08;;;;;;;4.90;4.50;;;23.60;73.50;;;;;;5018015;28;20191;-69
2022/08/30 10:10:51;;;;;;;5.90;5.40;;;23.60;73.50;;;;;;5017354;28;20694;-70
2022/08/30 10:13:47;;;;;;;5.10;4.70;;;23.60;73.30;;;;;;5033879;28;20187;-69
2022/08/30 10:16:43;;;;;;;5.07;4.68;;;23.60;73.60;;;;;;5027390;28;20245;-70
2022/08/30 10:19:20;;;;;;;5.22;4.72;;;23.60;73.40;;;;;;5021177;28;20251;-69
2022/08/30 10:22:02;;;;;;;5.25;4.85;;;23.60;73.90;;;;;;5031951;28;20190;-70
2022/08/30 10:24:47;;;;;;;4.95;4.55;;;23.60;73.90;;;;;;5033032;28;20325;-70
2022/08/30 10:27:24;;;;;;;4.93;4.53;;;23.60;73.80;;;;;;5026862;28;20211;-70
2022/08/30 10:30:13;;;;;;;5.40;5.00;;;23.60;74.00;;;;;;5032542;28;20203;-70
2022/08/30 10:33:03;;;;;;;5.07;4.68;;;23.60;73.60;;;;;;5035337;28;20186;-70
2022/08/30 10:35:41;;;;;;;5.63;5.10;;;23.60;73.60;;;;;;5033268;28;20171;-70
2022/08/30 10:38:22;;;;;;;5.03;4.53;;;23.60;73.80;;;;;;5033491;28;20179;-70
2022/08/30 10:41:13;;;;;;;4.97;4.47;;;23.60;73.60;;;;;;5034753;28;20218;-70
2022/08/30 10:43:52;;;;;;;5.18;4.65;;;23.60;73.80;;;;;;5032751;28;20207;-70
2022/08/30 10:47:07;;;;;;;5.03;4.60;;;23.60;73.90;;;;;;5032707;28;20198;-70
2022/08/30 10:49:42;;;;;;;4.95;4.43;;;23.70;74.50;;;;;;5022061;28;20222;-70
2022/08/30 10:52:11;;;;;;;5.55;4.55;;;23.80;74.70;;;;;;5019376;28;20171;-70
2022/08/30 10:54:58;;;;;;;6.25;4.82;;;23.80;74.60;;;;;;5033783;28;20230;-71
2022/08/30 10:57:24;;;;;;;4.90;4.50;;;23.70;74.60;;;;;;5032870;28;20674;-70
2022/08/30 11:00:34;;;;;;;5.30;4.80;;;23.70;74.70;;;;;;5033116;28;20211;-70
2022/08/30 11:03:57;;;;;;;7.25;4.47;;;23.70;74.60;;;;;;5027495;28;20194;-70
2022/08/30 11:06:43;;;;;;;5.00;4.53;;;23.70;74.70;;;;;;5027124;28;20249;-70
2022/08/30 11:09:42;;;;;;;5.13;4.63;;;23.70;74.60;;;;;;5033113;28;20686;-70
2022/08/30 11:12:47;;;;;;;5.97;5.15;;;23.70;74.60;;;;;;5033068;28;20186;-70
2022/08/30 11:15:21;;;;;;;5.45;4.95;;;23.70;74.50;;;;;;5034299;28;20186;-70
2022/08/30 11:18:17;;;;;;;5.70;4.60;;;23.70;74.40;;;;;;5031290;28;20198;-70
2022/08/30 11:20:50;;;;;;;5.40;4.88;;;23.70;74.50;;;;;;5028504;28;20219;-70
2022/08/30 11:23:35;;;;;;;5.05;4.55;;;23.70;74.50;;;;;;5033995;28;20180;-70
2022/08/30 11:26:04;;;;;;;4.72;4.25;;;23.60;74.40;;;;;;5029217;28;20211;-69
2022/08/30 11:28:36;;;;;;;5.72;4.90;;;23.70;74.30;;;;;;5016246;28;20183;-70
2022/08/30 11:31:18;;;;;;;4.95;4.45;;;23.60;74.10;;;;;;5032653;28;20321;-70
2022/08/30 11:33:47;;;;;;;6.10;4.88;;;23.70;74.10;;;;;;5032621;28;20191;-70
2022/08/30 11:36:28;;;;;;;5.15;4.72;;;23.70;74.20;;;;;;5033382;28;20229;-70
2022/08/30 11:38:54;;;;;;;5.75;4.68;;;23.70;74.00;;;;;;5032876;28;20309;-71
2022/08/30 11:41:46;;;;;;;4.88;4.47;;;23.70;73.90;;;;;;5032143;28;20263;-70
2022/08/30 11:44:21;;;;;;;5.45;4.63;;;23.70;73.90;;;;;;5032245;28;20190;-70
2022/08/30 11:47:15;;;;;;;5.40;4.90;;;23.70;74.20;;;;;;5032840;28;20221;-71
2022/08/30 11:50:13;;;;;;;4.85;4.30;;;23.70;74.40;;;;;;5029849;28;20233;-70
2022/08/30 11:52:53;;;;;;;4.65;4.28;;;23.80;74.30;;;;;;5031584;28;20655;-70
2022/08/30 11:55:25;;;;;;;5.78;4.90;;;23.80;74.20;;;;;;5015055;28;20631;-71
2022/08/30 11:58:12;;;;;;;5.00;4.47;;;23.80;74.10;;;;;;5032416;28;20249;-70
2022/08/30 12:00:44;;;;;;;5.32;4.82;;;23.70;74.00;;;;;;5032717;28;20214;-70
2022/08/30 12:03:13;;;;;;;6.60;4.43;;;23.80;74.00;;;;;;5015098;28;20262;-70
2022/08/30 12:06:01;;;;;;;9.45;4.60;;;23.80;74.10;;;;;;5014756;28;20226;-69
2022/08/30 12:08:33;;;;;;;4.57;4.18;;;23.80;73.80;;;;;;5032007;28;20184;-70
2022/08/30 12:11:10;;;;;;;7.57;4.70;;;23.80;73.90;;;;;;5031815;28;20605;-70
2022/08/30 12:13:36;;;;;;;4.55;4.15;;;23.80;74.00;;;;;;5032619;28;20233;-70
2022/08/30 12:16:07;;;;;;;4.28;3.92;;;23.80;73.80;;;;;;5014854;28;20195;-70
2022/08/30 12:18:59;;;;;;;5.13;4.40;;;23.80;73.90;;;;;;5031265;28;20233;-70
2022/08/30 12:21:35;;;;;;;5.00;4.25;;;23.80;73.80;;;;;;5031491;28;20187;-71
2022/08/30 12:24:26;;;;;;;4.45;4.15;;;23.80;73.80;;;;;;5032817;28;20167;-70
2022/08/30 12:26:53;;;;;;;4.95;4.50;;;23.80;73.90;;;;;;5030873;28;20214;-70
2022/08/30 12:29:27;;;;;;;4.22;3.92;;;23.80;73.90;;;;;;5048124;28;20586;-70
2022/08/30 12:32:13;;;;;;;6.82;4.85;;;23.80;74.00;;;;;;5031301;28;20190;-70
2022/08/30 12:34:39;;;;;;;4.65;4.25;;;23.80;73.80;;;;;;5031460;28;20584;-70
2022/08/30 12:37:25;;;;;;;5.38;4.93;;;23.80;73.70;;;;;;5030782;28;20225;-70
2022/08/30 12:40:20;;;;;;;5.03;4.57;;;23.80;73.60;;;;;;5032524;28;20206;-70
2022/08/30 12:43:03;;;;;;;4.65;4.25;;;23.80;73.50;;;;;;5032690;28;20282;-71
2022/08/30 12:45:45;;;;;;;4.88;4.43;;;23.90;73.90;;;;;;5031103;28;20559;-71
2022/08/30 12:48:16;;;;;;;5.68;4.50;;;23.80;73.60;;;;;;5031554;28;20178;-70
2022/08/30 12:50:52;;;;;;;5.53;5.03;;;23.80;73.80;;;;;;5032383;28;20203;-70
2022/08/30 12:53:41;;;;;;;5.00;4.60;;;23.80;73.60;;;;;;5032467;28;20183;-70
2022/08/30 12:56:14;;;;;;;4.63;4.22;;;23.80;73.70;;;;;;5013948;28;20171;-70
2022/08/30 12:58:50;;;;;;;5.93;4.85;;;23.80;73.70;;;;;;5031364;28;20191;-70
2022/08/30 13:01:30;;;;;;;4.88;4.47;;;23.80;73.80;;;;;;5014773;28;20187;-70
2022/08/30 13:04:25;;;;;;;5.00;4.53;;;23.80;73.80;;;;;;5046949;28;20190;-70
2022/08/30 13:07:00;;;;;;;4.70;4.25;;;23.80;73.80;;;;;;5029448;28;20211;-70
2022/08/30 13:09:34;;;;;;;5.75;4.93;;;23.80;73.80;;;;;;5022731;28;20202;-70
2022/08/30 13:12:23;;;;;;;5.05;4.65;;;23.80;73.60;;;;;;5035346;28;20270;-70
2022/08/30 13:14:52;;;;;;;4.90;4.50;;;23.80;73.60;;;;;;5035158;28;20171;-70
2022/08/30 13:17:18;;;;;;;5.32;4.82;;;23.80;73.80;;;;;;5033980;28;20206;-70
2022/08/30 13:19:54;;;;;;;4.85;4.45;;;23.80;74.00;;;;;;5034994;28;20210;-70
2022/08/30 13:22:33;;;;;;;5.15;4.65;;;23.80;73.90;;;;;;5036023;28;20186;-70